Alto, NM

8:05 PM MST on December 25, 2014 (GMT -0700)
Eagle Creek Canyon | Change Station
CLOSE
Current Station
Personal Weather Station
Location: Ruidoso, NM
Elevation: 7200 ft
Nearby Weather Stations

Elev 7200 ft 33.39 °N, 105.65 °W | Updated 1 minute ago

Partly Cloudy
Partly Cloudy
43.8 °F
Feels Like 41 °F
N
5.0
Wind Variable Wind from South
Gusts 14.0 mph

Today
High -- | Low -- °F
--% Chance of Precip.
Yesterday
High -- | Low -- °F
Precip. -- in
7:04 AM 5:01 PM
Waxing Crescent, 21% visible
Pressure 29.73 in
Visibility 10.0 miles
Clouds Clear
Windchill 41 °F
Dew Point 14 °F
Humidity 29%
Rainfall 0.00 in
Snow Depth Not available.
UV 0 out of 12
Pollen 7.90 out of 12
Air Quality Not available.
Flu Activity Not available.
METAR KSRR 260255Z AUTO 23024G34KT 10SM CLR 07/M09 A2973 RMK AO2

More Conditions Fewer Conditions

Pressure 29.73 in
Visibility 10.0 miles
Clouds Clear
Windchill 41 °F
Dew Point 14 °F
Humidity 29%
Rainfall 0.00 in
Snow Depth Not available.
UV 0 out of 12
Pollen 7.90 out of 12
Air Quality Not available.
Flu Activity Not available.
METAR KSRR 260255Z AUTO 23024G34KT 10SM CLR 07/M09 A2973 RMK AO2

More Conditions Fewer Conditions

Nowcast | as of 7:12 PM MST on December 25, 2014

Through 10 PM MST...southwest winds of 25 to 35 mph with gusts to near 50 mph will persist. Motorists should exercise caution due to strong Crosswinds on northwest to southeast oriented roads... especially drivers of high profile vehicles.

×

10-Day Weather Forecast

Almanac

Astronomy

Dec. 25, 2014 Rise Set
Actual Time
Civil Twilight
Nautical Twilight
Astronomical Twilight
Moon
Length of Visible Light
Length of Day
Tomorrow will be .
, % of the Moon is Illuminated

Today's Extremes

State Highs State Lows

Community

WunderPhotos

Upload Photos

1,780,525 photos uploaded!

WunderBlogs® & News

Nearby

Air Quality

  Air Quality AQ Index Pollutant
Not available.

Snow Depth

Station Depth Elevation

Earthquake Activity

City Distance Mag. Time & Date
Minimum magnitude displayed is 2.5.

Coastal Water Temperatures

Place Temperature

Nearby Weather Stations